x

Cape Suckling - 35 Nm Se Of Kayak Is, Ak (46082) Wave Buoy

6:50pm - Sat 20th Dec 2014 All times are AKST. -9 hours from GMT.

  • Sig Wave height 13.1ft
  • Peak Period 11s
  • Average Period 6s
  • Wind
    31mph, 40mph gusts
  • Sea Temp 47°f
  • Air Temp 44°f
  • Sea Pressure 976.1mb
  • Cape Suckling - 35 Nm Se Of Kayak Is, Ak
  • Cape Suckling - 35 Nm Se Of Kayak Is, Ak

More Historic Weather Station data

Upgrade to MSW Pro to gain access to the past 30 days of data for over 8000 Wavebouys and Weather Stations around the globe.

Join Pro

Comparision Forecast

View Surf forecast
   
Sat 12/20 6:50pm 13ft 11s 6s 31 40 mph 976.1mb 47f 44f
5:50pm 14ft 11s 6s 38 47 mph 975.2mb 47f 44f
4:50pm 15.5ft 11s 7s 38 43 mph 974.5mb 47f 44f
3:50pm 15ft 11s 7s 38 47 mph 973.9mb 47f 43f
2:50pm 15.5ft 11s 7s 36 45 mph 973.7mb 47f 43f
1:50pm 14.5ft 11s 7s 34 43 mph 973.7mb 47f 43f
12:50pm 13.5ft 11s 7s 34 38 mph 974.4mb 47f 42f
11:50am 10.5ft 10s 6s 31 40 mph 974.6mb 47f 42f
10:50am 11ft 11s 6s 31 38 mph 974.9mb 47f 42f
9:50am 11ft 10s 6s 29 38 mph 975.3mb 47f 42f
8:50am 10.5ft 11s 6s 22 29 mph 975.9mb 47f 42f
7:50am 10ft 10s 6s 13 20 mph 976mb 47f 45f
6:50am 10.5ft 10s 6s 18 20 mph 976.5mb 47f 45f
5:50am 12ft 11s 7s 20 25 mph 977.4mb 47f 45f
4:50am 13.5ft 11s 7s 22 29 mph 978.2mb 47f 45f
3:50am 15ft 11s 7s 25 31 mph 979mb 47f 46f
2:50am 14ft 11s 7s 34 40 mph 979.8mb 47f 44f
1:50am 15ft 11s 7s 36 43 mph 980.4mb 47f 45f
12:50am 14ft 11s 7s 31 38 mph 981.1mb 46f 45f
Fri 12/19 11:50pm 12ft 11s 7s 27 31 mph 981.7mb 46f 46f
10:50pm 12.5ft 11s 7s 31 40 mph 981.9mb 46f 46f
9:50pm 12ft 11s 7s 25 29 mph 982.5mb 46f 44f
8:50pm 11ft 11s 6s 31 38 mph 982.6mb 46f 46f
7:50pm 13ft 10s 7s 25 29 mph 982.6mb 46f 47f
6:50pm 13ft 11s 7s 27 36 mph 983.2mb 47f 46f
5:50pm 13ft 10s 7s 27 31 mph 983.5mb 47f 46f
4:50pm 12ft 11s 7s 27 31 mph 984.2mb 47f 46f
3:50pm 13.5ft 11s 7s 27 34 mph 984.8mb 47f 46f
2:50pm 11.5ft 11s 6s 29 36 mph 985.2mb 47f 45f
1:50pm 12ft 11s 6s 27 34 mph 985.9mb 47f 44f
12:50pm 13.5ft 11s 7s 29 34 mph 986.6mb 47f 44f
11:50am 13.5ft 11s 7s 27 34 mph 987.1mb 47f 43f
10:50am 11ft 11s 6s 29 34 mph 987.3mb 47f 42f
9:50am 12.5ft 12s 7s 29 36 mph 987.5mb 47f 43f
8:50am 12ft 12s 7s 29 36 mph 987.5mb 47f 44f
7:50am 13ft 10s 7s 29 34 mph 987.5mb 47f 44f
6:50am 12ft 12s 6s 27 34 mph 987.6mb 47f 43f
5:50am 13ft 11s 6s 31 36 mph 987.4mb 47f 43f
4:50am 15ft 10s 7s 25 31 mph 987.6mb 47f 44f
3:50am 15ft 12s 7s 27 31 mph 987.8mb 47f 45f
2:50am 16.5ft 11s 7s 25 31 mph 988mb 47f 45f
1:50am 17ft 11s 8s 29 34 mph 987.9mb 47f 44f
12:50am 15ft 11s 7s 27 34 mph 988.1mb 47f 44f
Thu 12/18 11:50pm 15.5ft 11s 7s 29 38 mph 988.1mb 47f 44f
10:50pm 14ft 10s 7s 31 38 mph 988mb 47f 44f
9:50pm 11ft 10s 6s 34 43 mph 988mb 47f 44f
8:50pm 9ft 10s 6s 29 38 mph 987.8mb 47f 46f
7:50pm 9ft 11s 6s 27 34 mph 988mb 47f 46f
6:50pm 8.5ft 10s 7s 18 22 mph 988.1mb 47f 46f
5:50pm 9ft 10s 7s 16 22 mph 988.2mb 47f 46f
4:50pm 8.5ft 9s 7s 16 18 mph 989mb 47f 45f
3:50pm 10ft 10s 7s 16 18 mph 989.8mb 47f 45f
2:50pm 10.5ft 10s 7s 16 18 mph 990.6mb 47f 45f
1:50pm 9.5ft 9s 7s 16 18 mph 991.6mb 47f 45f
12:50pm 10.5ft 10s 7s 11 16 mph 992.8mb 47f 45f
11:50am 9ft 10s 7s 11 13 mph 993.7mb 47f 45f
10:50am 9.5ft 10s 7s 13 16 mph 994.5mb 47f 45f
9:50am 10.5ft 10s 7s 16 20 mph 994.9mb 47f 45f
8:50am 10.5ft 10s 7s 18 22 mph 995.3mb 47f 45f
7:50am 9ft 10s 7s 18 22 mph 995.9mb 47f 45f
6:50am 8.5ft 9s 6s 20 22 mph 996.7mb 46f 45f
5:50am 8ft 8s 6s 18 20 mph 997.1mb 46f 45f
4:50am 9ft 10s 6s 18 22 mph 997.5mb 46f 45f
3:50am 8.5ft 9s 6s 18 22 mph 998.3mb 47f 45f
2:50am 7ft 7s 5s 22 25 mph 998.9mb 47f 45f
1:50am 8ft 9s 5s 22 27 mph 999.2mb 47f 45f
12:50am 7.5ft 10s 5s 25 27 mph 999.8mb 47f 44f
Wed 12/17 11:50pm 8ft 6s 5s 25 31 mph 1000.6mb 47f 44f
10:50pm 7.5ft 6s 5s 25 31 mph 1001mb 47f 44f
9:50pm 8ft 6s 5s 27 31 mph 1001.5mb 46f 43f
8:50pm 7ft 6s 5s 25 31 mph 1002mb 46f 43f
7:50pm 8ft 6s 5s 25 29 mph 1002.2mb 46f 44f
6:50pm 7ft 6s 5s 25 31 mph 1002.7mb 46f 43f
5:50pm 8ft 6s 5s 25 31 mph 1003.1mb 46f 42f
4:50pm 8ft 6s 5s 27 31 mph 1003.3mb 46f 43f
3:50pm 8.5ft 11s 6s 27 31 mph 1003.5mb 46f 43f
2:50pm 9ft 6s 6s 25 29 mph 1003.9mb 46f 42f
1:50pm 8.5ft 9s 6s 22 29 mph 1004.6mb 46f 41f
12:50pm 9ft 10s 6s 4 9 mph 1004.7mb 46f 42f
11:50am 8ft 10s 6s 13 20 mph 1004.4mb 46f 43f
10:50am 8ft 10s 6s 9 11 mph 1004.4mb 46f 43f
9:50am 8ft 10s 6s 7 11 mph 1003.9mb 46f 41f
8:50am 8ft 9s 6s 13 18 mph 1003.3mb 46f 42f
7:50am 8ft 10s 6s 20 22 mph 1002.6mb 46f 41f
6:50am 9ft 11s 6s 20 25 mph 1002.4mb 47f 41f
5:50am 8ft 11s 6s 20 27 mph 1002.4mb 47f 41f